sensor_id;sensor_type;location;lat;lon;timestamp;pressure;altitude;pressure_sealevel;temperature;humidity
1616;BME280;801;47.982;7.810;2023-10-19T00:01:22;96979.44;;;12.16;100.00
1616;BME280;801;47.982;7.810;2023-10-19T00:03:51;96991.97;;;11.90;100.00
1616;BME280;801;47.982;7.810;2023-10-19T00:06:21;96994.56;;;11.81;100.00
1616;BME280;801;47.982;7.810;2023-10-19T00:08:52;96986.19;;;11.82;100.00
1616;BME280;801;47.982;7.810;2023-10-19T00:11:19;96976.06;;;11.79;100.00
1616;BME280;801;47.982;7.810;2023-10-19T00:13:49;96978.50;;;11.67;100.00
1616;BME280;801;47.982;7.810;2023-10-19T00:16:21;96978.84;;;11.74;100.00
1616;BME280;801;47.982;7.810;2023-10-19T00:18:55;96977.63;;;11.80;100.00
1616;BME280;801;47.982;7.810;2023-10-19T00:21:25;96979.91;;;11.64;100.00
1616;BME280;801;47.982;7.810;2023-10-19T00:23:58;96972.75;;;11.82;100.00
1616;BME280;801;47.982;7.810;2023-10-19T00:26:30;96982.53;;;11.78;100.00
1616;BME280;801;47.982;7.810;2023-10-19T00:28:58;96974.03;;;11.85;100.00
1616;BME280;801;47.982;7.810;2023-10-19T00:31:31;96966.44;;;11.87;100.00
1616;BME280;801;47.982;7.810;2023-10-19T00:34:02;96982.03;;;11.76;100.00
1616;BME280;801;47.982;7.810;2023-10-19T00:36:29;96974.03;;;11.85;100.00
1616;BME280;801;47.982;7.810;2023-10-19T00:39:05;96977.81;;;11.84;100.00
1616;BME280;801;47.982;7.810;2023-10-19T00:41:40;96964.81;;;12.00;100.00
1616;BME280;801;47.982;7.810;2023-10-19T00:44:11;96970.19;;;12.00;100.00
1616;BME280;801;47.982;7.810;2023-10-19T00:46:45;96955.66;;;11.87;100.00
1616;BME280;801;47.982;7.810;2023-10-19T00:49:15;96969.88;;;11.79;100.00
1616;BME280;801;47.982;7.810;2023-10-19T00:51:44;96985.06;;;11.75;100.00
1616;BME280;801;47.982;7.810;2023-10-19T00:54:24;96979.09;;;11.87;100.00
1616;BME280;801;47.982;7.810;2023-10-19T00:56:58;96986.19;;;11.82;100.00
1616;BME280;801;47.982;7.810;2023-10-19T00:59:37;96982.31;;;11.89;100.00
1616;BME280;801;47.982;7.810;2023-10-19T01:02:13;96980.59;;;11.93;100.00
1616;BME280;801;47.982;7.810;2023-10-19T01:04:55;96963.03;;;11.95;100.00
1616;BME280;801;47.982;7.810;2023-10-19T01:07:27;96948.66;;;12.00;100.00
1616;BME280;801;47.982;7.810;2023-10-19T01:09:58;96971.16;;;12.04;100.00
1616;BME280;801;47.982;7.810;2023-10-19T01:12:30;96963.38;;;12.02;100.00
1616;BME280;801;47.982;7.810;2023-10-19T01:15:07;96953.91;;;12.05;100.00
1616;BME280;801;47.982;7.810;2023-10-19T01:17:38;96949.47;;;12.09;100.00
1616;BME280;801;47.982;7.810;2023-10-19T01:20:10;96940.28;;;12.01;100.00
1616;BME280;801;47.982;7.810;2023-10-19T01:22:51;96953.41;;;12.03;100.00
1616;BME280;801;47.982;7.810;2023-10-19T01:25:41;96935.84;;;12.05;100.00
1616;BME280;801;47.982;7.810;2023-10-19T01:28:11;96927.31;;;12.12;100.00
1616;BME280;801;47.982;7.810;2023-10-19T01:30:42;96920.84;;;12.13;100.00
1616;BME280;801;47.982;7.810;2023-10-19T01:33:19;96923.38;;;12.18;100.00
1616;BME280;801;47.982;7.810;2023-10-19T01:35:49;96922.13;;;12.16;100.00
1616;BME280;801;47.982;7.810;2023-10-19T01:38:36;96913.91;;;12.30;100.00
1616;BME280;801;47.982;7.810;2023-10-19T01:41:08;96912.34;;;12.29;100.00
1616;BME280;801;47.982;7.810;2023-10-19T01:43:40;96913.69;;;12.57;100.00
1616;BME280;801;47.982;7.810;2023-10-19T01:46:08;96910.50;;;12.46;100.00
1616;BME280;801;47.982;7.810;2023-10-19T01:48:38;96910.53;;;12.55;100.00
1616;BME280;801;47.982;7.810;2023-10-19T01:51:09;96905.13;;;12.55;100.00
1616;BME280;801;47.982;7.810;2023-10-19T01:53:38;96904.50;;;12.58;100.00
1616;BME280;801;47.982;7.810;2023-10-19T01:56:11;96906.69;;;12.56;100.00
1616;BME280;801;47.982;7.810;2023-10-19T01:58:42;96899.56;;;12.52;100.00
1616;BME280;801;47.982;7.810;2023-10-19T02:03:56;96896.88;;;12.60;100.00
1616;BME280;801;47.982;7.810;2023-10-19T02:06:27;96905.75;;;12.52;100.00
1616;BME280;801;47.982;7.810;2023-10-19T02:09:04;96904.78;;;12.57;100.00
1616;BME280;801;47.982;7.810;2023-10-19T02:11:37;96908.13;;;12.54;100.00
1616;BME280;801;47.982;7.810;2023-10-19T02:14:14;96906.88;;;12.51;100.00
1616;BME280;801;47.982;7.810;2023-10-19T02:16:40;96911.44;;;12.42;100.00
1616;BME280;801;47.982;7.810;2023-10-19T02:19:11;96905.25;;;12.41;100.00
1616;BME280;801;47.982;7.810;2023-10-19T02:21:37;96920.00;;;12.44;100.00
1616;BME280;801;47.982;7.810;2023-10-19T02:24:10;96915.13;;;12.55;100.00
1616;BME280;801;47.982;7.810;2023-10-19T02:29:22;96909.72;;;12.55;100.00
1616;BME280;801;47.982;7.810;2023-10-19T02:31:49;96916.66;;;12.38;100.00
1616;BME280;801;47.982;7.810;2023-10-19T02:34:19;96914.13;;;12.42;100.00
1616;BME280;801;47.982;7.810;2023-10-19T02:36:46;96913.00;;;12.43;100.00
1616;BME280;801;47.982;7.810;2023-10-19T02:39:16;96916.19;;;12.45;100.00
1616;BME280;801;47.982;7.810;2023-10-19T02:41:44;96901.47;;;12.51;100.00
1616;BME280;801;47.982;7.810;2023-10-19T02:44:14;96902.75;;;12.54;100.00
1616;BME280;801;47.982;7.810;2023-10-19T02:46:49;96899.88;;;12.50;100.00
1616;BME280;801;47.982;7.810;2023-10-19T02:49:24;96887.03;;;12.47;100.00
1616;BME280;801;47.982;7.810;2023-10-19T02:51:53;96884.97;;;12.44;100.00
1616;BME280;801;47.982;7.810;2023-10-19T02:54:29;96890.97;;;12.41;100.00
1616;BME280;801;47.982;7.810;2023-10-19T02:56:58;96885.28;;;12.42;100.00
1616;BME280;801;47.982;7.810;2023-10-19T02:59:27;96877.69;;;12.44;100.00
1616;BME280;801;47.982;7.810;2023-10-19T03:01:56;96866.91;;;12.36;100.00
1616;BME280;801;47.982;7.810;2023-10-19T03:04:27;96857.84;;;12.32;100.00
1616;BME280;801;47.982;7.810;2023-10-19T03:06:54;96862.44;;;12.31;100.00
1616;BME280;801;47.982;7.810;2023-10-19T03:09:24;96867.06;;;12.39;100.00
1616;BME280;801;47.982;7.810;2023-10-19T03:11:56;96863.25;;;12.40;100.00
1616;BME280;801;47.982;7.810;2023-10-19T03:14:25;96857.91;;;12.66;100.00
1616;BME280;801;47.982;7.810;2023-10-19T03:16:51;96853.16;;;12.81;100.00
1616;BME280;801;47.982;7.810;2023-10-19T03:19:23;96856.50;;;12.86;100.00
1616;BME280;801;47.982;7.810;2023-10-19T03:21:54;96840.00;;;12.79;100.00
1616;BME280;801;47.982;7.810;2023-10-19T03:24:25;96845.53;;;12.83;100.00
1616;BME280;801;47.982;7.810;2023-10-19T03:27:05;96843.94;;;12.99;100.00
1616;BME280;801;47.982;7.810;2023-10-19T03:29:38;96838.91;;;12.98;100.00
1616;BME280;801;47.982;7.810;2023-10-19T03:32:04;96832.84;;;12.92;100.00
1616;BME280;801;47.982;7.810;2023-10-19T03:34:32;96838.09;;;12.88;100.00
1616;BME280;801;47.982;7.810;2023-10-19T03:36:58;96821.78;;;12.85;100.00
1616;BME280;801;47.982;7.810;2023-10-19T03:39:30;96831.75;;;12.93;100.00
1616;BME280;801;47.982;7.810;2023-10-19T03:41:58;96826.50;;;13.05;100.00
1616;BME280;801;47.982;7.810;2023-10-19T03:44:27;96821.09;;;13.05;100.00
1616;BME280;801;47.982;7.810;2023-10-19T03:47:04;96818.41;;;13.05;100.00
1616;BME280;801;47.982;7.810;2023-10-19T03:49:36;96823.66;;;13.11;100.00
1616;BME280;801;47.982;7.810;2023-10-19T03:52:04;96810.63;;;13.13;100.00
1616;BME280;801;47.982;7.810;2023-10-19T03:54:45;96807.91;;;13.21;100.00
1616;BME280;801;47.982;7.810;2023-10-19T03:57:13;96813.19;;;13.18;100.00
1616;BME280;801;47.982;7.810;2023-10-19T03:59:47;96806.66;;;13.19;100.00
1616;BME280;801;47.982;7.810;2023-10-19T04:02:15;96803.47;;;13.25;100.00
1616;BME280;801;47.982;7.810;2023-10-19T04:04:46;96803.47;;;13.25;100.00
1616;BME280;801;47.982;7.810;2023-10-19T04:07:14;96797.75;;;13.27;100.00
1616;BME280;801;47.982;7.810;2023-10-19T04:09:46;96789.22;;;13.16;100.00
1616;BME280;801;47.982;7.810;2023-10-19T04:12:35;96788.91;;;13.18;100.00
1616;BME280;801;47.982;7.810;2023-10-19T04:15:05;96787.78;;;13.19;100.00
1616;BME280;801;47.982;7.810;2023-10-19T04:17:37;96787.31;;;13.17;100.00
1616;BME280;801;47.982;7.810;2023-10-19T04:20:08;96785.72;;;13.16;100.00
1616;BME280;801;47.982;7.810;2023-10-19T04:22:52;96786.84;;;13.15;100.00
1616;BME280;801;47.982;7.810;2023-10-19T04:25:19;96781.78;;;13.13;100.00
1616;BME280;801;47.982;7.810;2023-10-19T04:27:46;96785.25;;;13.14;100.00
1616;BME280;801;47.982;7.810;2023-10-19T04:30:15;96776.84;;;13.15;100.00
1616;BME280;801;47.982;7.810;2023-10-19T04:32:43;96779.88;;;13.14;100.00
1616;BME280;801;47.982;7.810;2023-10-19T04:35:10;96775.72;;;13.16;100.00
1616;BME280;801;47.982;7.810;2023-10-19T04:37:38;96767.31;;;13.18;100.00
1616;BME280;801;47.982;7.810;2023-10-19T04:40:08;96769.56;;;13.16;100.00
1616;BME280;801;47.982;7.810;2023-10-19T04:42:34;96759.88;;;13.15;100.00
1616;BME280;801;47.982;7.810;2023-10-19T04:45:02;96754.78;;;13.22;100.00
1616;BME280;801;47.982;7.810;2023-10-19T04:47:31;96754.13;;;13.25;100.00
1616;BME280;801;47.982;7.810;2023-10-19T04:50:00;96754.44;;;13.23;100.00
1616;BME280;801;47.982;7.810;2023-10-19T04:52:28;96749.41;;;13.22;100.00
1616;BME280;801;47.982;7.810;2023-10-19T04:54:55;96750.31;;;13.26;100.00
1616;BME280;801;47.982;7.810;2023-10-19T04:57:21;96743.66;;;13.23;100.00
1616;BME280;801;47.982;7.810;2023-10-19T04:59:48;96745.56;;;13.23;100.00
1616;BME280;801;47.982;7.810;2023-10-19T05:02:15;96737.47;;;13.32;100.00
1616;BME280;801;47.982;7.810;2023-10-19T05:04:43;96739.22;;;13.19;100.00
1616;BME280;801;47.982;7.810;2023-10-19T05:07:10;96737.66;;;13.18;100.00
1616;BME280;801;47.982;7.810;2023-10-19T05:09:41;96734.63;;;13.19;100.00
1616;BME280;801;47.982;7.810;2023-10-19T05:12:08;96728.72;;;13.26;100.00
1616;BME280;801;47.982;7.810;2023-10-19T05:14:36;96722.25;;;13.27;100.00
1616;BME280;801;47.982;7.810;2023-10-19T05:17:03;96727.16;;;13.25;100.00
1616;BME280;801;47.982;7.810;2023-10-19T05:19:30;96721.97;;;13.20;100.00
1616;BME280;801;47.982;7.810;2023-10-19T05:21:59;96728.28;;;13.24;100.00
1616;BME280;801;47.982;7.810;2023-10-19T05:24:26;96729.56;;;13.26;100.00
1616;BME280;801;47.982;7.810;2023-10-19T05:26:53;96728.72;;;13.26;100.00
1616;BME280;801;47.982;7.810;2023-10-19T05:29:19;96733.72;;;13.15;100.00
1616;BME280;801;47.982;7.810;2023-10-19T05:31:46;96730.53;;;13.13;100.00
1616;BME280;801;47.982;7.810;2023-10-19T05:34:13;96724.50;;;13.16;100.00
1616;BME280;801;47.982;7.810;2023-10-19T05:36:41;96717.66;;;13.19;100.00
1616;BME280;801;47.982;7.810;2023-10-19T05:39:12;96713.88;;;13.20;100.00
1616;BME280;801;47.982;7.810;2023-10-19T05:41:39;96717.94;;;13.26;100.00
1616;BME280;801;47.982;7.810;2023-10-19T05:44:05;96724.47;;;13.25;100.00
1616;BME280;801;47.982;7.810;2023-10-19T05:46:32;96717.81;;;13.22;100.00
1616;BME280;801;47.982;7.810;2023-10-19T05:48:58;96724.94;;;13.27;100.00
1616;BME280;801;47.982;7.810;2023-10-19T05:51:26;96721.31;;;13.32;100.00
1616;BME280;801;47.982;7.810;2023-10-19T05:53:53;96722.75;;;13.29;100.00
1616;BME280;801;47.982;7.810;2023-10-19T05:56:28;96728.72;;;13.26;100.00
1616;BME280;801;47.982;7.810;2023-10-19T05:58:55;96718.59;;;13.23;100.00
1616;BME280;801;47.982;7.810;2023-10-19T06:01:22;96723.34;;;13.26;100.00
1616;BME280;801;47.982;7.810;2023-10-19T06:03:49;96730.34;;;13.27;100.00
1616;BME280;801;47.982;7.810;2023-10-19T06:06:17;96721.97;;;13.20;100.00
1616;BME280;801;47.982;7.810;2023-10-19T06:08:44;96723.53;;;13.21;100.00
1616;BME280;801;47.982;7.810;2023-10-19T06:11:11;96725.59;;;13.24;100.00
1616;BME280;801;47.982;7.810;2023-10-19T06:13:39;96727.81;;;13.22;100.00
1616;BME280;801;47.982;7.810;2023-10-19T06:16:06;96724.94;;;13.27;100.00
1616;BME280;801;47.982;7.810;2023-10-19T06:18:33;96716.84;;;13.36;100.00
1616;BME280;801;47.982;7.810;2023-10-19T06:20:59;96714.16;;;13.36;100.00
1616;BME280;801;47.982;7.810;2023-10-19T06:23:26;96713.19;;;13.40;100.00
1616;BME280;801;47.982;7.810;2023-10-19T06:25:52;96710.97;;;13.34;100.00
1616;BME280;801;47.982;7.810;2023-10-19T06:28:18;96707.78;;;13.40;100.00
1616;BME280;801;47.982;7.810;2023-10-19T06:30:46;96708.47;;;13.28;100.00
1616;BME280;801;47.982;7.810;2023-10-19T06:33:14;96705.41;;;13.39;100.00
1616;BME280;801;47.982;7.810;2023-10-19T06:35:40;96694.28;;;13.40;100.00
1616;BME280;801;47.982;7.810;2023-10-19T06:38:07;96690.00;;;13.39;100.00
1616;BME280;801;47.982;7.810;2023-10-19T06:40:35;96682.84;;;13.43;100.00
1616;BME280;801;47.982;7.810;2023-10-19T06:43:02;96691.78;;;13.35;100.00
1616;BME280;801;47.982;7.810;2023-10-19T06:45:30;96698.72;;;13.45;100.00
1616;BME280;801;47.982;7.810;2023-10-19T06:47:58;96697.28;;;13.47;100.00
1616;BME280;801;47.982;7.810;2023-10-19T06:50:26;96697.63;;;13.37;100.00
1616;BME280;801;47.982;7.810;2023-10-19T06:52:53;96708.41;;;13.37;100.00
1616;BME280;801;47.982;7.810;2023-10-19T06:55:20;96704.47;;;13.35;100.00
1616;BME280;801;47.982;7.810;2023-10-19T06:57:49;96715.13;;;13.31;100.00
1616;BME280;801;47.982;7.810;2023-10-19T07:00:17;96722.56;;;13.25;100.00
1616;BME280;801;47.982;7.810;2023-10-19T07:02:45;96719.25;;;13.20;100.00
1616;BME280;801;47.982;7.810;2023-10-19T07:05:14;96714.94;;;13.36;100.00
1616;BME280;801;47.982;7.810;2023-10-19T07:07:44;96715.13;;;13.31;100.00
1616;BME280;801;47.982;7.810;2023-10-19T07:10:12;96721.59;;;13.39;100.00
1616;BME280;801;47.982;7.810;2023-10-19T07:12:40;96717.59;;;13.45;100.00
1616;BME280;801;47.982;7.810;2023-10-19T07:15:08;96719.78;;;13.52;100.00
1616;BME280;801;47.982;7.810;2023-10-19T07:17:39;96726.13;;;13.56;100.00
1616;BME280;801;47.982;7.810;2023-10-19T07:20:06;96724.03;;;13.61;100.00
1616;BME280;801;47.982;7.810;2023-10-19T07:22:35;96728.41;;;13.75;100.00
1616;BME280;801;47.982;7.810;2023-10-19T07:25:04;96718.53;;;13.79;100.00
1616;BME280;801;47.982;7.810;2023-10-19T07:27:31;96726.38;;;13.93;100.00
1616;BME280;801;47.982;7.810;2023-10-19T07:29:59;96725.09;;;13.99;100.00
1616;BME280;801;47.982;7.810;2023-10-19T07:32:25;96724.56;;;14.05;100.00
1616;BME280;801;47.982;7.810;2023-10-19T07:34:53;96712.78;;;14.10;100.00
1616;BME280;801;47.982;7.810;2023-10-19T07:37:20;96720.69;;;14.15;100.00
1616;BME280;801;47.982;7.810;2023-10-19T07:39:49;96716.00;;;14.24;100.00
1616;BME280;801;47.982;7.810;2023-10-19T07:42:17;96715.81;;;14.29;100.00
1616;BME280;801;47.982;7.810;2023-10-19T07:44:44;96714.38;;;14.32;100.00
1616;BME280;801;47.982;7.810;2023-10-19T07:47:11;96715.41;;;14.40;100.00
1616;BME280;801;47.982;7.810;2023-10-19T07:49:38;96713.16;;;14.42;100.00
1616;BME280;801;47.982;7.810;2023-10-19T07:52:05;96714.53;;;14.48;100.00
1616;BME280;801;47.982;7.810;2023-10-19T07:54:32;96716.56;;;14.51;100.00
1616;BME280;801;47.982;7.810;2023-10-19T07:57:00;96724.38;;;14.31;100.00
1616;BME280;801;47.982;7.810;2023-10-19T07:59:30;96720.75;;;14.27;100.00
1616;BME280;801;47.982;7.810;2023-10-19T08:01:57;96719.97;;;14.27;100.00
1616;BME280;801;47.982;7.810;2023-10-19T08:04:26;96715.63;;;14.14;100.00
1616;BME280;801;47.982;7.810;2023-10-19T08:06:53;96721.59;;;14.19;100.00
1616;BME280;801;47.982;7.810;2023-10-19T08:09:20;96722.91;;;14.13;100.00
1616;BME280;801;47.982;7.810;2023-10-19T08:11:49;96725.75;;;14.17;100.00
1616;BME280;801;47.982;7.810;2023-10-19T08:14:17;96719.81;;;14.23;100.00
1616;BME280;801;47.982;7.810;2023-10-19T08:16:44;96715.09;;;14.20;100.00
1616;BME280;801;47.982;7.810;2023-10-19T08:19:11;96707.97;;;14.16;100.00
1616;BME280;801;47.982;7.810;2023-10-19T08:21:37;96702.38;;;14.21;100.00
1616;BME280;801;47.982;7.810;2023-10-19T08:24:04;96709.22;;;14.18;100.00
1616;BME280;801;47.982;7.810;2023-10-19T08:26:31;96717.81;;;14.20;100.00
1616;BME280;801;47.982;7.810;2023-10-19T08:28:57;96730.63;;;14.23;100.00
1616;BME280;801;47.982;7.810;2023-10-19T08:31:25;96720.69;;;14.15;100.00
1616;BME280;801;47.982;7.810;2023-10-19T08:33:52;96711.53;;;14.28;100.00
1616;BME280;801;47.982;7.810;2023-10-19T08:36:20;96696.44;;;14.27;100.00
1616;BME280;801;47.982;7.810;2023-10-19T08:38:46;96692.22;;;14.39;100.00
1616;BME280;801;47.982;7.810;2023-10-19T08:41:14;96693.25;;;14.46;100.00
1616;BME280;801;47.982;7.810;2023-10-19T08:43:41;96699.41;;;14.56;100.00
1616;BME280;801;47.982;7.810;2023-10-19T08:46:09;96695.25;;;14.58;100.00
1616;BME280;801;47.982;7.810;2023-10-19T08:48:38;96711.06;;;14.68;100.00
1616;BME280;801;47.982;7.810;2023-10-19T08:51:09;96700.47;;;14.76;100.00
1616;BME280;801;47.982;7.810;2023-10-19T08:53:36;96705.00;;;14.71;100.00
1616;BME280;801;47.982;7.810;2023-10-19T08:56:06;96707.34;;;14.73;100.00
1616;BME280;801;47.982;7.810;2023-10-19T08:58:34;96701.41;;;14.80;100.00
1616;BME280;801;47.982;7.810;2023-10-19T09:01:01;96691.75;;;14.91;100.00
1616;BME280;801;47.982;7.810;2023-10-19T09:03:31;96688.84;;;14.96;100.00
1616;BME280;801;47.982;7.810;2023-10-19T09:06:02;96694.16;;;15.05;100.00
1616;BME280;801;47.982;7.810;2023-10-19T09:08:31;96694.94;;;15.05;100.00
1616;BME280;801;47.982;7.810;2023-10-19T09:11:06;96687.84;;;15.13;100.00
1616;BME280;801;47.982;7.810;2023-10-19T09:13:42;96691.91;;;15.19;100.00
1616;BME280;801;47.982;7.810;2023-10-19T09:16:10;96692.69;;;15.20;100.00
1616;BME280;801;47.982;7.810;2023-10-19T09:18:36;96689.66;;;15.21;100.00
1616;BME280;801;47.982;7.810;2023-10-19T09:21:06;96688.44;;;15.19;100.00
1616;BME280;801;47.982;7.810;2023-10-19T09:23:37;96683.47;;;15.21;100.00
1616;BME280;801;47.982;7.810;2023-10-19T09:26:04;96660.69;;;15.22;100.00
1616;BME280;801;47.982;7.810;2023-10-19T09:28:34;96668.25;;;15.28;100.00
1616;BME280;801;47.982;7.810;2023-10-19T09:31:01;96677.84;;;15.26;100.00
1616;BME280;801;47.982;7.810;2023-10-19T09:33:28;96676.81;;;15.30;100.00
1616;BME280;801;47.982;7.810;2023-10-19T09:35:59;96659.81;;;15.30;100.00
1616;BME280;801;47.982;7.810;2023-10-19T09:38:28;96654.28;;;15.39;100.00
1616;BME280;801;47.982;7.810;2023-10-19T09:40:55;96641.66;;;15.43;100.00
1616;BME280;801;47.982;7.810;2023-10-19T09:43:33;96631.50;;;15.52;100.00
1616;BME280;801;47.982;7.810;2023-10-19T09:46:01;96615.34;;;15.68;100.00
1616;BME280;801;47.982;7.810;2023-10-19T09:48:35;96620.31;;;15.66;100.00
1616;BME280;801;47.982;7.810;2023-10-19T09:51:07;96608.59;;;15.74;100.00
1616;BME280;801;47.982;7.810;2023-10-19T09:53:36;96600.44;;;15.86;100.00
1616;BME280;801;47.982;7.810;2023-10-19T09:56:06;96603.13;;;15.98;100.00
1616;BME280;801;47.982;7.810;2023-10-19T09:58:35;96607.34;;;16.12;100.00
1616;BME280;801;47.982;7.810;2023-10-19T10:01:03;96599.94;;;16.25;100.00
1616;BME280;801;47.982;7.810;2023-10-19T10:03:47;96601.63;;;16.29;100.00
1616;BME280;801;47.982;7.810;2023-10-19T10:06:15;96605.47;;;16.28;100.00
1616;BME280;801;47.982;7.810;2023-10-19T10:08:45;96608.63;;;16.30;100.00
1616;BME280;801;47.982;7.810;2023-10-19T10:11:17;96603.91;;;16.43;100.00
1616;BME280;801;47.982;7.810;2023-10-19T10:13:45;96603.25;;;16.46;100.00
1616;BME280;801;47.982;7.810;2023-10-19T10:16:13;96602.91;;;16.48;100.00
1616;BME280;801;47.982;7.810;2023-10-19T10:18:40;96600.72;;;16.53;100.00
1616;BME280;801;47.982;7.810;2023-10-19T10:21:11;96603.44;;;16.53;100.00
1616;BME280;801;47.982;7.810;2023-10-19T10:23:43;96602.81;;;16.60;100.00
1616;BME280;801;47.982;7.810;2023-10-19T10:26:12;96591.47;;;16.70;100.00
1616;BME280;801;47.982;7.810;2023-10-19T10:28:40;96588.44;;;16.88;100.00
1616;BME280;801;47.982;7.810;2023-10-19T10:31:13;96585.81;;;17.07;100.00
1616;BME280;801;47.982;7.810;2023-10-19T10:33:43;96587.44;;;17.28;100.00
1616;BME280;801;47.982;7.810;2023-10-19T10:36:14;96578.06;;;17.41;100.00
1616;BME280;801;47.982;7.810;2023-10-19T10:38:43;96572.59;;;17.57;100.00
1616;BME280;801;47.982;7.810;2023-10-19T10:41:11;96572.63;;;17.76;100.00
1616;BME280;801;47.982;7.810;2023-10-19T10:43:52;96570.16;;;17.87;100.00
1616;BME280;801;47.982;7.810;2023-10-19T10:46:20;96562.00;;;17.87;100.00
1616;BME280;801;47.982;7.810;2023-10-19T10:48:47;96557.44;;;17.91;100.00
1616;BME280;801;47.982;7.810;2023-10-19T10:51:15;96562.88;;;17.91;100.00
1616;BME280;801;47.982;7.810;2023-10-19T10:53:41;96559.84;;;17.96;100.00
1616;BME280;801;47.982;7.810;2023-10-19T10:56:07;96552.22;;;18.02;100.00
1616;BME280;801;47.982;7.810;2023-10-19T10:58:35;96558.00;;;18.00;100.00
1616;BME280;801;47.982;7.810;2023-10-19T11:01:02;96556.72;;;17.94;100.00
1616;BME280;801;47.982;7.810;2023-10-19T11:03:28;96554.56;;;18.03;100.00
1616;BME280;801;47.982;7.810;2023-10-19T11:05:55;96550.97;;;17.99;100.00
1616;BME280;801;47.982;7.810;2023-10-19T11:08:28;96546.50;;;18.07;100.00
1616;BME280;801;47.982;7.810;2023-10-19T11:11:02;96557.00;;;18.09;100.00
1616;BME280;801;47.982;7.810;2023-10-19T11:13:30;96546.13;;;18.09;100.00
1616;BME280;801;47.982;7.810;2023-10-19T11:15:59;96550.41;;;18.10;100.00
1616;BME280;801;47.982;7.810;2023-10-19T11:18:31;96554.56;;;18.03;100.00
1616;BME280;801;47.982;7.810;2023-10-19T11:20:58;96553.44;;;18.04;100.00
1616;BME280;801;47.982;7.810;2023-10-19T11:23:40;96550.00;;;18.08;100.00
1616;BME280;801;47.982;7.810;2023-10-19T11:26:07;96560.16;;;18.11;100.00
1616;BME280;801;47.982;7.810;2023-10-19T11:28:35;96552.78;;;18.11;100.00
1616;BME280;801;47.982;7.810;2023-10-19T11:31:13;96559.44;;;17.94;100.00
1616;BME280;801;47.982;7.810;2023-10-19T11:33:41;96573.09;;;17.98;100.00
1616;BME280;801;47.982;7.810;2023-10-19T11:36:08;96569.22;;;17.99;100.00
1616;BME280;801;47.982;7.810;2023-10-19T11:38:38;96575.31;;;17.92;100.00
1616;BME280;801;47.982;7.810;2023-10-19T11:41:05;96591.59;;;17.92;100.00
1616;BME280;801;47.982;7.810;2023-10-19T11:43:33;96588.69;;;18.01;100.00
1616;BME280;801;47.982;7.810;2023-10-19T11:45:59;96599.84;;;17.96;100.00
1616;BME280;801;47.982;7.810;2023-10-19T11:48:27;96606.78;;;17.93;100.00
1616;BME280;801;47.982;7.810;2023-10-19T11:50:54;96622.06;;;17.82;100.00
1616;BME280;801;47.982;7.810;2023-10-19T11:53:20;96615.22;;;17.72;100.00
1616;BME280;801;47.982;7.810;2023-10-19T11:55:47;96616.22;;;17.64;100.00
1616;BME280;801;47.982;7.810;2023-10-19T11:58:14;96613.78;;;17.78;100.00
1616;BME280;801;47.982;7.810;2023-10-19T12:00:41;96615.91;;;17.34;100.00
1616;BME280;801;47.982;7.810;2023-10-19T12:03:09;96599.78;;;17.41;100.00
1616;BME280;801;47.982;7.810;2023-10-19T12:05:37;96596.38;;;17.44;100.00
1616;BME280;801;47.982;7.810;2023-10-19T12:08:04;96592.47;;;17.61;100.00
1616;BME280;801;47.982;7.810;2023-10-19T12:10:32;96580.53;;;17.66;100.00
1616;BME280;801;47.982;7.810;2023-10-19T12:13:01;96582.38;;;17.61;100.00
1616;BME280;801;47.982;7.810;2023-10-19T12:15:28;96565.53;;;17.72;100.00
1616;BME280;801;47.982;7.810;2023-10-19T12:17:54;96575.38;;;17.60;100.00
1616;BME280;801;47.982;7.810;2023-10-19T12:20:21;96571.06;;;17.75;100.00
1616;BME280;801;47.982;7.810;2023-10-19T12:22:49;96566.13;;;17.81;100.00
1616;BME280;801;47.982;7.810;2023-10-19T12:25:19;96555.03;;;17.86;100.00
1616;BME280;801;47.982;7.810;2023-10-19T12:27:46;96555.72;;;17.83;100.00
1616;BME280;801;47.982;7.810;2023-10-19T12:30:12;96543.66;;;17.64;100.00
1616;BME280;801;47.982;7.810;2023-10-19T12:32:45;96535.81;;;17.59;100.00
1616;BME280;801;47.982;7.810;2023-10-19T12:35:14;96531.72;;;17.50;100.00
1616;BME280;801;47.982;7.810;2023-10-19T12:37:43;96538.06;;;17.38;100.00
1616;BME280;801;47.982;7.810;2023-10-19T12:40:17;96527.00;;;17.47;100.00
1616;BME280;801;47.982;7.810;2023-10-19T12:42:54;96528.94;;;17.46;100.00
1616;BME280;801;47.982;7.810;2023-10-19T12:45:21;96526.47;;;17.41;100.00
1616;BME280;801;47.982;7.810;2023-10-19T12:47:48;96526.91;;;17.43;100.00
1616;BME280;801;47.982;7.810;2023-10-19T12:50:15;96519.78;;;17.35;100.00
1616;BME280;801;47.982;7.810;2023-10-19T12:52:41;96519.78;;;17.35;100.00
1616;BME280;801;47.982;7.810;2023-10-19T12:55:08;96525.19;;;17.35;100.00
1616;BME280;801;47.982;7.810;2023-10-19T12:57:38;96517.47;;;17.37;100.00
1616;BME280;801;47.982;7.810;2023-10-19T13:00:07;96506.59;;;17.37;100.00
1616;BME280;801;47.982;7.810;2023-10-19T13:02:47;96500.25;;;17.29;100.00
1616;BME280;801;47.982;7.810;2023-10-19T13:05:14;96505.81;;;17.36;100.00
1616;BME280;801;47.982;7.810;2023-10-19T13:07:43;96501.91;;;17.34;100.00
1616;BME280;801;47.982;7.810;2023-10-19T13:10:10;96495.50;;;17.42;100.00
1616;BME280;801;47.982;7.810;2023-10-19T13:12:38;96496.13;;;17.35;100.00
1616;BME280;801;47.982;7.810;2023-10-19T13:15:06;96483.25;;;17.32;100.00
1616;BME280;801;47.982;7.810;2023-10-19T13:17:38;96477.03;;;17.32;100.00
1616;BME280;801;47.982;7.810;2023-10-19T13:20:06;96487.25;;;17.38;100.00
1616;BME280;801;47.982;7.810;2023-10-19T13:22:41;96481.84;;;17.38;100.00
1616;BME280;801;47.982;7.810;2023-10-19T13:25:08;96484.91;;;17.37;100.00
1616;BME280;801;47.982;7.810;2023-10-19T13:27:39;96480.63;;;17.36;100.00
1616;BME280;801;47.982;7.810;2023-10-19T13:30:08;96485.75;;;17.41;100.00
1616;BME280;801;47.982;7.810;2023-10-19T13:32:36;96478.19;;;17.50;100.00
1616;BME280;801;47.982;7.810;2023-10-19T13:35:03;96473.47;;;17.47;100.00
1616;BME280;801;47.982;7.810;2023-10-19T13:37:30;96458.19;;;17.58;100.00
1616;BME280;801;47.982;7.810;2023-10-19T13:39:57;96455.19;;;17.63;100.00